Collinsville, Mississippi
Current Conditions -  °F | °C
As of 7:58 PM on Saturday 22 Nov 2014 (Local Time) from KMEI Reporting Station
Overcast Overcast  
Wind Chill: 63°   Ceiling: 2600
Heat Index: 63°   Visibility: 10mi
Dew Point: 53°   Wind: 6mph
Humidity: 70%   Direction: 130°SE
Pressure: 30.07"   Gusts: NA
Location:  32.5°N, 88.85°W
Report Text: KMEI 230158Z 13005KT 10SM OVC026 17/12 A3007 RMK AO2 SLP179 T01720117
Loading
Personal Weather Stations






























Interactive Weather Map New forecast layout! Learn more

10-Day Weather Forecast

Advertisements
Track Severe Weather on mobile